sensor_id;sensor_type;location;lat;lon;timestamp;temperature;humidity
38604;DHT22;24924;50.054;8.790;2023-06-19T00:02:02;23.50;98.40
38604;DHT22;24924;50.054;8.790;2023-06-19T00:04:28;23.50;98.10
38604;DHT22;24924;50.054;8.790;2023-06-19T00:06:54;23.50;97.50
38604;DHT22;24924;50.054;8.790;2023-06-19T00:09:20;23.50;97.30
38604;DHT22;24924;50.054;8.790;2023-06-19T00:11:47;23.50;99.60
38604;DHT22;24924;50.054;8.790;2023-06-19T00:14:12;23.50;99.80
38604;DHT22;24924;50.054;8.790;2023-06-19T00:16:38;23.40;98.10
38604;DHT22;24924;50.054;8.790;2023-06-19T00:19:06;23.40;97.80
38604;DHT22;24924;50.054;8.790;2023-06-19T00:21:31;23.40;99.10
38604;DHT22;24924;50.054;8.790;2023-06-19T00:23:57;23.60;97.90
38604;DHT22;24924;50.054;8.790;2023-06-19T00:26:23;23.50;97.80
38604;DHT22;24924;50.054;8.790;2023-06-19T00:28:51;23.40;98.20
38604;DHT22;24924;50.054;8.790;2023-06-19T00:31:17;23.30;99.90
38604;DHT22;24924;50.054;8.790;2023-06-19T00:33:44;23.20;99.90
38604;DHT22;24924;50.054;8.790;2023-06-19T00:36:15;23.30;98.90
38604;DHT22;24924;50.054;8.790;2023-06-19T00:38:42;23.50;98.20
38604;DHT22;24924;50.054;8.790;2023-06-19T00:41:08;23.40;98.70
38604;DHT22;24924;50.054;8.790;2023-06-19T00:43:34;23.40;99.00
38604;DHT22;24924;50.054;8.790;2023-06-19T00:46:01;23.40;99.00
38604;DHT22;24924;50.054;8.790;2023-06-19T00:48:28;23.30;99.80
38604;DHT22;24924;50.054;8.790;2023-06-19T00:50:56;23.20;99.90
38604;DHT22;24924;50.054;8.790;2023-06-19T00:53:23;22.90;99.90
38604;DHT22;24924;50.054;8.790;2023-06-19T00:55:51;22.70;99.90
38604;DHT22;24924;50.054;8.790;2023-06-19T00:58:18;22.50;99.90
38604;DHT22;24924;50.054;8.790;2023-06-19T01:00:46;22.50;99.90
38604;DHT22;24924;50.054;8.790;2023-06-19T01:03:13;22.40;99.90
38604;DHT22;24924;50.054;8.790;2023-06-19T01:05:38;22.30;99.90
38604;DHT22;24924;50.054;8.790;2023-06-19T01:08:34;22.30;99.90
38604;DHT22;24924;50.054;8.790;2023-06-19T01:10:57;22.40;99.90
38604;DHT22;24924;50.054;8.790;2023-06-19T01:13:51;22.30;99.90
38604;DHT22;24924;50.054;8.790;2023-06-19T01:16:22;22.20;99.90
38604;DHT22;24924;50.054;8.790;2023-06-19T01:18:48;22.30;99.90
38604;DHT22;24924;50.054;8.790;2023-06-19T01:21:16;22.40;99.90
38604;DHT22;24924;50.054;8.790;2023-06-19T01:23:43;22.40;99.90
38604;DHT22;24924;50.054;8.790;2023-06-19T01:26:09;22.40;99.90
38604;DHT22;24924;50.054;8.790;2023-06-19T01:28:39;22.30;99.90
38604;DHT22;24924;50.054;8.790;2023-06-19T01:31:17;22.20;99.90
38604;DHT22;24924;50.054;8.790;2023-06-19T01:33:47;22.20;99.90
38604;DHT22;24924;50.054;8.790;2023-06-19T01:36:14;22.10;99.90
38604;DHT22;24924;50.054;8.790;2023-06-19T01:38:43;22.10;99.90
38604;DHT22;24924;50.054;8.790;2023-06-19T01:41:09;22.30;99.90
38604;DHT22;24924;50.054;8.790;2023-06-19T01:43:36;22.20;99.90
38604;DHT22;24924;50.054;8.790;2023-06-19T01:46:03;22.10;99.90
38604;DHT22;24924;50.054;8.790;2023-06-19T01:48:29;22.10;99.90
38604;DHT22;24924;50.054;8.790;2023-06-19T01:50:55;22.00;99.90
38604;DHT22;24924;50.054;8.790;2023-06-19T01:53:21;22.10;99.90
38604;DHT22;24924;50.054;8.790;2023-06-19T01:55:47;22.00;99.90
38604;DHT22;24924;50.054;8.790;2023-06-19T01:58:13;21.80;99.90
38604;DHT22;24924;50.054;8.790;2023-06-19T02:00:39;21.90;99.90
38604;DHT22;24924;50.054;8.790;2023-06-19T02:03:05;21.70;99.90
38604;DHT22;24924;50.054;8.790;2023-06-19T02:05:31;21.70;99.90
38604;DHT22;24924;50.054;8.790;2023-06-19T02:07:57;21.50;99.90
38604;DHT22;24924;50.054;8.790;2023-06-19T02:10:24;21.60;99.90
38604;DHT22;24924;50.054;8.790;2023-06-19T02:12:50;21.50;99.90
38604;DHT22;24924;50.054;8.790;2023-06-19T02:15:16;21.60;99.90
38604;DHT22;24924;50.054;8.790;2023-06-19T02:17:42;21.50;99.90
38604;DHT22;24924;50.054;8.790;2023-06-19T02:20:08;21.60;99.90
38604;DHT22;24924;50.054;8.790;2023-06-19T02:22:40;21.40;99.90
38604;DHT22;24924;50.054;8.790;2023-06-19T02:25:06;21.20;99.90
38604;DHT22;24924;50.054;8.790;2023-06-19T02:27:32;21.10;99.90
38604;DHT22;24924;50.054;8.790;2023-06-19T02:29:59;20.90;99.90
38604;DHT22;24924;50.054;8.790;2023-06-19T02:32:24;20.80;99.90
38604;DHT22;24924;50.054;8.790;2023-06-19T02:34:51;21.20;99.90
38604;DHT22;24924;50.054;8.790;2023-06-19T02:37:16;22.30;99.90
38604;DHT22;24924;50.054;8.790;2023-06-19T02:39:42;21.50;99.90
38604;DHT22;24924;50.054;8.790;2023-06-19T02:42:08;21.40;99.90
38604;DHT22;24924;50.054;8.790;2023-06-19T02:44:34;21.60;99.90
38604;DHT22;24924;50.054;8.790;2023-06-19T02:47:01;21.70;99.90
38604;DHT22;24924;50.054;8.790;2023-06-19T02:49:27;21.70;99.90
38604;DHT22;24924;50.054;8.790;2023-06-19T02:51:53;21.70;99.90
38604;DHT22;24924;50.054;8.790;2023-06-19T02:54:19;21.80;99.90
38604;DHT22;24924;50.054;8.790;2023-06-19T02:56:45;21.70;99.90
38604;DHT22;24924;50.054;8.790;2023-06-19T02:59:11;21.60;99.90
38604;DHT22;24924;50.054;8.790;2023-06-19T03:01:37;21.60;99.90
38604;DHT22;24924;50.054;8.790;2023-06-19T03:04:03;21.50;99.90
38604;DHT22;24924;50.054;8.790;2023-06-19T03:06:29;21.40;99.90
38604;DHT22;24924;50.054;8.790;2023-06-19T03:08:56;21.40;99.90
38604;DHT22;24924;50.054;8.790;2023-06-19T03:11:22;21.30;99.90
38604;DHT22;24924;50.054;8.790;2023-06-19T03:13:50;21.30;99.90
38604;DHT22;24924;50.054;8.790;2023-06-19T03:16:19;21.30;99.90
38604;DHT22;24924;50.054;8.790;2023-06-19T03:18:46;21.20;99.90
38604;DHT22;24924;50.054;8.790;2023-06-19T03:21:14;21.20;99.90
38604;DHT22;24924;50.054;8.790;2023-06-19T03:23:41;21.30;99.90
38604;DHT22;24924;50.054;8.790;2023-06-19T03:26:11;21.20;99.90
38604;DHT22;24924;50.054;8.790;2023-06-19T03:28:38;21.20;99.90
38604;DHT22;24924;50.054;8.790;2023-06-19T03:31:06;21.30;99.90
38604;DHT22;24924;50.054;8.790;2023-06-19T03:33:33;21.30;99.90
38604;DHT22;24924;50.054;8.790;2023-06-19T03:36:00;21.30;99.90
38604;DHT22;24924;50.054;8.790;2023-06-19T03:38:38;21.30;99.90
38604;DHT22;24924;50.054;8.790;2023-06-19T03:41:04;21.40;99.90
38604;DHT22;24924;50.054;8.790;2023-06-19T03:43:30;21.40;99.90
38604;DHT22;24924;50.054;8.790;2023-06-19T03:45:56;21.40;99.90
38604;DHT22;24924;50.054;8.790;2023-06-19T03:48:22;21.30;99.90
38604;DHT22;24924;50.054;8.790;2023-06-19T03:50:48;21.40;99.90
38604;DHT22;24924;50.054;8.790;2023-06-19T03:53:14;21.40;99.90
38604;DHT22;24924;50.054;8.790;2023-06-19T03:55:39;21.50;99.90
38604;DHT22;24924;50.054;8.790;2023-06-19T03:58:05;21.60;99.90
38604;DHT22;24924;50.054;8.790;2023-06-19T04:00:32;21.60;99.90
38604;DHT22;24924;50.054;8.790;2023-06-19T04:02:58;21.60;99.90
38604;DHT22;24924;50.054;8.790;2023-06-19T04:05:24;21.60;99.90
38604;DHT22;24924;50.054;8.790;2023-06-19T04:07:50;21.60;99.90
38604;DHT22;24924;50.054;8.790;2023-06-19T04:10:16;21.60;99.90
38604;DHT22;24924;50.054;8.790;2023-06-19T04:12:42;21.60;99.90
38604;DHT22;24924;50.054;8.790;2023-06-19T04:15:08;21.70;99.90
38604;DHT22;24924;50.054;8.790;2023-06-19T04:17:35;21.60;99.90
38604;DHT22;24924;50.054;8.790;2023-06-19T04:20:03;21.60;99.90
38604;DHT22;24924;50.054;8.790;2023-06-19T04:22:40;21.70;99.90
38604;DHT22;24924;50.054;8.790;2023-06-19T04:25:08;21.70;99.90
38604;DHT22;24924;50.054;8.790;2023-06-19T04:27:34;21.60;99.90
38604;DHT22;24924;50.054;8.790;2023-06-19T04:30:02;21.70;99.90
38604;DHT22;24924;50.054;8.790;2023-06-19T04:32:28;21.70;99.90
38604;DHT22;24924;50.054;8.790;2023-06-19T04:34:53;21.70;99.90
38604;DHT22;24924;50.054;8.790;2023-06-19T04:37:19;21.70;99.90
38604;DHT22;24924;50.054;8.790;2023-06-19T04:39:47;21.80;99.90
38604;DHT22;24924;50.054;8.790;2023-06-19T04:42:17;21.70;99.90
38604;DHT22;24924;50.054;8.790;2023-06-19T04:44:46;21.70;99.90
38604;DHT22;24924;50.054;8.790;2023-06-19T04:47:13;21.80;99.90
38604;DHT22;24924;50.054;8.790;2023-06-19T04:49:39;21.80;99.90
38604;DHT22;24924;50.054;8.790;2023-06-19T04:52:05;21.90;99.90
38604;DHT22;24924;50.054;8.790;2023-06-19T04:54:31;21.90;99.90
38604;DHT22;24924;50.054;8.790;2023-06-19T04:56:58;21.90;99.90
38604;DHT22;24924;50.054;8.790;2023-06-19T04:59:24;21.90;99.90
38604;DHT22;24924;50.054;8.790;2023-06-19T05:01:50;21.90;99.90
38604;DHT22;24924;50.054;8.790;2023-06-19T05:04:19;21.90;99.90
38604;DHT22;24924;50.054;8.790;2023-06-19T05:06:44;22.00;99.90
38604;DHT22;24924;50.054;8.790;2023-06-19T05:09:10;22.00;99.90
38604;DHT22;24924;50.054;8.790;2023-06-19T05:11:36;22.00;99.90
38604;DHT22;24924;50.054;8.790;2023-06-19T05:14:02;22.10;99.90
38604;DHT22;24924;50.054;8.790;2023-06-19T05:16:28;22.00;99.90
38604;DHT22;24924;50.054;8.790;2023-06-19T05:18:54;22.00;99.90
38604;DHT22;24924;50.054;8.790;2023-06-19T05:21:20;22.10;99.90
38604;DHT22;24924;50.054;8.790;2023-06-19T05:23:45;22.10;99.90
38604;DHT22;24924;50.054;8.790;2023-06-19T05:26:19;22.20;99.90
38604;DHT22;24924;50.054;8.790;2023-06-19T05:28:45;22.30;99.90
38604;DHT22;24924;50.054;8.790;2023-06-19T05:31:11;22.40;99.90
38604;DHT22;24924;50.054;8.790;2023-06-19T05:33:37;22.40;99.90
38604;DHT22;24924;50.054;8.790;2023-06-19T05:36:03;22.50;99.90
38604;DHT22;24924;50.054;8.790;2023-06-19T05:38:29;22.60;99.90
38604;DHT22;24924;50.054;8.790;2023-06-19T05:40:57;22.60;99.90
38604;DHT22;24924;50.054;8.790;2023-06-19T05:43:23;22.50;99.90
38604;DHT22;24924;50.054;8.790;2023-06-19T05:45:50;22.60;99.90
38604;DHT22;24924;50.054;8.790;2023-06-19T05:48:15;22.60;99.90
38604;DHT22;24924;50.054;8.790;2023-06-19T05:50:41;22.60;99.90
38604;DHT22;24924;50.054;8.790;2023-06-19T05:53:07;22.70;99.90
38604;DHT22;24924;50.054;8.790;2023-06-19T05:55:33;22.70;99.90
38604;DHT22;24924;50.054;8.790;2023-06-19T05:57:58;22.80;99.90
38604;DHT22;24924;50.054;8.790;2023-06-19T06:00:24;22.90;99.90
38604;DHT22;24924;50.054;8.790;2023-06-19T06:02:50;23.10;99.90
38604;DHT22;24924;50.054;8.790;2023-06-19T06:05:17;23.20;99.90
38604;DHT22;24924;50.054;8.790;2023-06-19T06:07:44;23.30;99.90
38604;DHT22;24924;50.054;8.790;2023-06-19T06:10:11;23.30;99.90
38604;DHT22;24924;50.054;8.790;2023-06-19T06:12:36;23.20;99.90
38604;DHT22;24924;50.054;8.790;2023-06-19T06:15:04;23.20;99.90
38604;DHT22;24924;50.054;8.790;2023-06-19T06:17:30;23.10;99.90
38604;DHT22;24924;50.054;8.790;2023-06-19T06:19:55;23.10;99.90
38604;DHT22;24924;50.054;8.790;2023-06-19T06:22:21;23.10;99.90
38604;DHT22;24924;50.054;8.790;2023-06-19T06:24:47;23.20;99.90
38604;DHT22;24924;50.054;8.790;2023-06-19T06:27:13;23.20;99.90
38604;DHT22;24924;50.054;8.790;2023-06-19T06:29:39;23.10;99.90
38604;DHT22;24924;50.054;8.790;2023-06-19T06:32:06;23.20;99.90
38604;DHT22;24924;50.054;8.790;2023-06-19T06:34:35;23.20;99.90
38604;DHT22;24924;50.054;8.790;2023-06-19T06:37:04;23.20;99.90
38604;DHT22;24924;50.054;8.790;2023-06-19T06:39:30;23.20;99.90
38604;DHT22;24924;50.054;8.790;2023-06-19T06:41:56;23.20;99.90
38604;DHT22;24924;50.054;8.790;2023-06-19T06:44:22;23.30;99.90
38604;DHT22;24924;50.054;8.790;2023-06-19T06:46:47;23.40;99.90
38604;DHT22;24924;50.054;8.790;2023-06-19T06:49:13;23.50;99.90
38604;DHT22;24924;50.054;8.790;2023-06-19T06:51:41;23.60;99.90
38604;DHT22;24924;50.054;8.790;2023-06-19T06:54:06;23.70;99.90
38604;DHT22;24924;50.054;8.790;2023-06-19T06:56:32;23.80;99.90
38604;DHT22;24924;50.054;8.790;2023-06-19T06:58:58;23.90;99.90
38604;DHT22;24924;50.054;8.790;2023-06-19T07:01:23;24.10;99.90
38604;DHT22;24924;50.054;8.790;2023-06-19T07:03:49;24.00;99.90
38604;DHT22;24924;50.054;8.790;2023-06-19T07:06:15;24.10;99.90
38604;DHT22;24924;50.054;8.790;2023-06-19T07:08:40;24.20;99.90
38604;DHT22;24924;50.054;8.790;2023-06-19T07:11:09;24.30;99.90
38604;DHT22;24924;50.054;8.790;2023-06-19T07:13:34;24.10;99.90
38604;DHT22;24924;50.054;8.790;2023-06-19T07:16:00;24.10;99.90
38604;DHT22;24924;50.054;8.790;2023-06-19T07:18:27;23.90;99.90
38604;DHT22;24924;50.054;8.790;2023-06-19T07:20:53;24.00;99.90
38604;DHT22;24924;50.054;8.790;2023-06-19T07:23:19;24.10;99.90
38604;DHT22;24924;50.054;8.790;2023-06-19T07:25:46;24.30;99.90
38604;DHT22;24924;50.054;8.790;2023-06-19T07:28:11;24.30;99.90
38604;DHT22;24924;50.054;8.790;2023-06-19T07:30:39;24.60;99.90
38604;DHT22;24924;50.054;8.790;2023-06-19T07:33:05;24.50;99.90
38604;DHT22;24924;50.054;8.790;2023-06-19T07:35:30;24.40;99.90
38604;DHT22;24924;50.054;8.790;2023-06-19T07:37:56;24.40;99.90
38604;DHT22;24924;50.054;8.790;2023-06-19T07:40:21;24.50;99.90
38604;DHT22;24924;50.054;8.790;2023-06-19T07:42:47;24.60;99.90
38604;DHT22;24924;50.054;8.790;2023-06-19T07:45:13;24.50;99.90
38604;DHT22;24924;50.054;8.790;2023-06-19T07:47:39;24.30;99.90
38604;DHT22;24924;50.054;8.790;2023-06-19T07:50:05;24.30;99.90
38604;DHT22;24924;50.054;8.790;2023-06-19T07:52:31;24.40;99.90
38604;DHT22;24924;50.054;8.790;2023-06-19T07:54:57;24.60;99.90
38604;DHT22;24924;50.054;8.790;2023-06-19T07:57:24;24.50;99.90
38604;DHT22;24924;50.054;8.790;2023-06-19T07:59:51;24.50;99.90
38604;DHT22;24924;50.054;8.790;2023-06-19T08:02:17;24.70;99.90
38604;DHT22;24924;50.054;8.790;2023-06-19T08:04:43;25.00;99.90
38604;DHT22;24924;50.054;8.790;2023-06-19T08:07:09;25.30;99.90
38604;DHT22;24924;50.054;8.790;2023-06-19T08:09:34;25.60;99.90
38604;DHT22;24924;50.054;8.790;2023-06-19T08:12:01;25.60;99.90
38604;DHT22;24924;50.054;8.790;2023-06-19T08:14:27;25.30;99.90
38604;DHT22;24924;50.054;8.790;2023-06-19T08:16:52;25.10;99.90
38604;DHT22;24924;50.054;8.790;2023-06-19T08:19:18;24.90;99.90
38604;DHT22;24924;50.054;8.790;2023-06-19T08:21:44;24.80;99.90
38604;DHT22;24924;50.054;8.790;2023-06-19T08:24:09;24.90;99.90
38604;DHT22;24924;50.054;8.790;2023-06-19T08:26:35;25.10;99.90
38604;DHT22;24924;50.054;8.790;2023-06-19T08:29:01;25.20;99.90
38604;DHT22;24924;50.054;8.790;2023-06-19T08:31:27;25.10;99.90
38604;DHT22;24924;50.054;8.790;2023-06-19T08:33:56;25.10;99.90
38604;DHT22;24924;50.054;8.790;2023-06-19T08:36:23;25.20;99.90
38604;DHT22;24924;50.054;8.790;2023-06-19T08:38:49;25.60;99.90
38604;DHT22;24924;50.054;8.790;2023-06-19T08:41:19;25.50;99.90
38604;DHT22;24924;50.054;8.790;2023-06-19T08:43:48;25.60;99.90
38604;DHT22;24924;50.054;8.790;2023-06-19T08:46:18;25.70;99.90
38604;DHT22;24924;50.054;8.790;2023-06-19T08:48:45;25.70;99.90
38604;DHT22;24924;50.054;8.790;2023-06-19T08:51:11;25.90;99.90
38604;DHT22;24924;50.054;8.790;2023-06-19T08:53:47;26.10;99.90
38604;DHT22;24924;50.054;8.790;2023-06-19T08:56:13;26.00;99.90
38604;DHT22;24924;50.054;8.790;2023-06-19T08:58:39;25.80;99.90
38604;DHT22;24924;50.054;8.790;2023-06-19T09:01:05;25.60;99.90
38604;DHT22;24924;50.054;8.790;2023-06-19T09:03:31;25.60;99.90
38604;DHT22;24924;50.054;8.790;2023-06-19T09:05:58;25.50;99.90
38604;DHT22;24924;50.054;8.790;2023-06-19T09:08:24;25.60;99.90
38604;DHT22;24924;50.054;8.790;2023-06-19T09:11:02;25.80;99.90
38604;DHT22;24924;50.054;8.790;2023-06-19T09:13:28;26.00;99.90
38604;DHT22;24924;50.054;8.790;2023-06-19T09:16:04;25.70;99.90
38604;DHT22;24924;50.054;8.790;2023-06-19T09:18:42;25.70;99.90
38604;DHT22;24924;50.054;8.790;2023-06-19T09:21:15;25.80;99.90
38604;DHT22;24924;50.054;8.790;2023-06-19T09:23:42;26.10;99.90
38604;DHT22;24924;50.054;8.790;2023-06-19T09:26:09;26.10;99.90
38604;DHT22;24924;50.054;8.790;2023-06-19T09:28:40;26.40;99.90
38604;DHT22;24924;50.054;8.790;2023-06-19T09:31:07;26.30;99.90
38604;DHT22;24924;50.054;8.790;2023-06-19T09:33:34;26.70;99.90
38604;DHT22;24924;50.054;8.790;2023-06-19T09:36:02;26.50;99.90
38604;DHT22;24924;50.054;8.790;2023-06-19T09:38:33;26.60;99.90
38604;DHT22;24924;50.054;8.790;2023-06-19T09:41:04;26.30;99.90
38604;DHT22;24924;50.054;8.790;2023-06-19T09:43:37;26.00;99.90
38604;DHT22;24924;50.054;8.790;2023-06-19T09:46:04;25.90;99.90
38604;DHT22;24924;50.054;8.790;2023-06-19T09:48:32;25.80;99.90
38604;DHT22;24924;50.054;8.790;2023-06-19T09:51:21;25.80;99.90
38604;DHT22;24924;50.054;8.790;2023-06-19T09:53:52;26.00;99.90
38604;DHT22;24924;50.054;8.790;2023-06-19T09:56:18;26.20;99.90
38604;DHT22;24924;50.054;8.790;2023-06-19T09:58:48;26.20;99.90
38604;DHT22;24924;50.054;8.790;2023-06-19T10:01:16;26.40;99.90
38604;DHT22;24924;50.054;8.790;2023-06-19T10:03:44;26.50;99.90
38604;DHT22;24924;50.054;8.790;2023-06-19T10:06:14;26.60;99.90
38604;DHT22;24924;50.054;8.790;2023-06-19T10:08:42;26.60;99.90
38604;DHT22;24924;50.054;8.790;2023-06-19T10:11:09;26.60;99.90
38604;DHT22;24924;50.054;8.790;2023-06-19T10:13:36;26.70;99.90
38604;DHT22;24924;50.054;8.790;2023-06-19T10:16:04;26.90;99.90
38604;DHT22;24924;50.054;8.790;2023-06-19T10:18:32;27.20;99.90
38604;DHT22;24924;50.054;8.790;2023-06-19T10:20:58;27.40;99.90
38604;DHT22;24924;50.054;8.790;2023-06-19T10:23:25;27.60;99.90
38604;DHT22;24924;50.054;8.790;2023-06-19T10:28:24;27.60;99.90
38604;DHT22;24924;50.054;8.790;2023-06-19T10:30:56;27.60;99.70
38604;DHT22;24924;50.054;8.790;2023-06-19T10:33:24;27.50;99.50
38604;DHT22;24924;50.054;8.790;2023-06-19T10:35:50;27.30;99.90
38604;DHT22;24924;50.054;8.790;2023-06-19T10:38:16;27.00;99.90
38604;DHT22;24924;50.054;8.790;2023-06-19T10:40:42;26.70;99.90
38604;DHT22;24924;50.054;8.790;2023-06-19T10:43:10;26.70;99.90
38604;DHT22;24924;50.054;8.790;2023-06-19T10:45:35;26.90;99.90
38604;DHT22;24924;50.054;8.790;2023-06-19T10:48:02;26.80;99.90
38604;DHT22;24924;50.054;8.790;2023-06-19T10:50:28;26.80;99.90
38604;DHT22;24924;50.054;8.790;2023-06-19T10:52:54;26.60;99.90
38604;DHT22;24924;50.054;8.790;2023-06-19T10:55:20;26.70;99.90
38604;DHT22;24924;50.054;8.790;2023-06-19T10:57:47;26.50;99.90
38604;DHT22;24924;50.054;8.790;2023-06-19T11:00:29;26.50;99.90
38604;DHT22;24924;50.054;8.790;2023-06-19T11:02:56;26.50;99.90
38604;DHT22;24924;50.054;8.790;2023-06-19T11:05:24;26.50;99.90
38604;DHT22;24924;50.054;8.790;2023-06-19T11:10:20;26.60;99.90
38604;DHT22;24924;50.054;8.790;2023-06-19T11:12:48;26.80;99.90
38604;DHT22;24924;50.054;8.790;2023-06-19T11:15:14;27.00;99.90
38604;DHT22;24924;50.054;8.790;2023-06-19T11:17:40;27.00;99.90
38604;DHT22;24924;50.054;8.790;2023-06-19T11:20:13;27.00;99.90
38604;DHT22;24924;50.054;8.790;2023-06-19T11:22:41;27.00;99.90
38604;DHT22;24924;50.054;8.790;2023-06-19T11:25:09;27.00;99.90
38604;DHT22;24924;50.054;8.790;2023-06-19T11:27:38;27.10;99.90
38604;DHT22;24924;50.054;8.790;2023-06-19T11:30:05;27.20;99.90
38604;DHT22;24924;50.054;8.790;2023-06-19T11:32:37;27.10;99.90
38604;DHT22;24924;50.054;8.790;2023-06-19T11:35:11;26.90;99.90
38604;DHT22;24924;50.054;8.790;2023-06-19T11:37:39;27.00;99.90
38604;DHT22;24924;50.054;8.790;2023-06-19T11:40:07;26.90;99.90
38604;DHT22;24924;50.054;8.790;2023-06-19T11:42:46;26.80;99.90
38604;DHT22;24924;50.054;8.790;2023-06-19T11:45:12;26.70;99.90
38604;DHT22;24924;50.054;8.790;2023-06-19T11:47:38;26.80;99.90
38604;DHT22;24924;50.054;8.790;2023-06-19T11:50:05;26.80;99.90
38604;DHT22;24924;50.054;8.790;2023-06-19T11:52:31;26.80;99.90
38604;DHT22;24924;50.054;8.790;2023-06-19T11:54:57;27.00;99.90
38604;DHT22;24924;50.054;8.790;2023-06-19T11:57:22;27.00;99.90
38604;DHT22;24924;50.054;8.790;2023-06-19T11:59:48;27.20;99.70
38604;DHT22;24924;50.054;8.790;2023-06-19T12:02:13;27.30;99.90
38604;DHT22;24924;50.054;8.790;2023-06-19T12:04:39;27.50;99.50
38604;DHT22;24924;50.054;8.790;2023-06-19T12:07:05;27.40;99.60
38604;DHT22;24924;50.054;8.790;2023-06-19T12:09:32;27.40;99.10
38604;DHT22;24924;50.054;8.790;2023-06-19T12:11:58;27.40;99.40
38604;DHT22;24924;50.054;8.790;2023-06-19T12:14:25;27.40;99.00
38604;DHT22;24924;50.054;8.790;2023-06-19T12:16:52;27.50;99.30
38604;DHT22;24924;50.054;8.790;2023-06-19T12:19:17;27.50;98.80
38604;DHT22;24924;50.054;8.790;2023-06-19T12:21:43;27.50;98.90
38604;DHT22;24924;50.054;8.790;2023-06-19T12:24:09;27.40;98.50
38604;DHT22;24924;50.054;8.790;2023-06-19T12:26:35;27.60;98.90
38604;DHT22;24924;50.054;8.790;2023-06-19T12:29:03;27.60;98.30
38604;DHT22;24924;50.054;8.790;2023-06-19T12:31:32;27.80;98.20
38604;DHT22;24924;50.054;8.790;2023-06-19T12:33:58;27.80;98.10
38604;DHT22;24924;50.054;8.790;2023-06-19T12:36:25;27.90;98.40
38604;DHT22;24924;50.054;8.790;2023-06-19T12:38:53;28.00;98.20
38604;DHT22;24924;50.054;8.790;2023-06-19T12:41:19;28.00;97.90
38604;DHT22;24924;50.054;8.790;2023-06-19T12:43:45;28.30;97.80
38604;DHT22;24924;50.054;8.790;2023-06-19T12:46:12;28.30;97.20
38604;DHT22;24924;50.054;8.790;2023-06-19T12:48:38;28.50;96.80
38604;DHT22;24924;50.054;8.790;2023-06-19T12:51:03;28.60;96.80
38604;DHT22;24924;50.054;8.790;2023-06-19T12:53:29;28.60;96.60
38604;DHT22;24924;50.054;8.790;2023-06-19T12:55:59;28.70;96.30
38604;DHT22;24924;50.054;8.790;2023-06-19T12:58:25;28.40;96.20
38604;DHT22;24924;50.054;8.790;2023-06-19T13:00:53;28.40;96.30
38604;DHT22;24924;50.054;8.790;2023-06-19T13:03:18;28.60;96.20
38604;DHT22;24924;50.054;8.790;2023-06-19T13:05:45;28.80;95.10
38604;DHT22;24924;50.054;8.790;2023-06-19T13:08:11;28.80;95.80
38604;DHT22;24924;50.054;8.790;2023-06-19T13:10:37;28.50;95.00
38604;DHT22;24924;50.054;8.790;2023-06-19T13:13:04;29.00;95.10
38604;DHT22;24924;50.054;8.790;2023-06-19T13:15:31;29.00;95.20
38604;DHT22;24924;50.054;8.790;2023-06-19T13:17:59;29.30;95.10
38604;DHT22;24924;50.054;8.790;2023-06-19T13:20:25;29.40;94.10
38604;DHT22;24924;50.054;8.790;2023-06-19T13:22:50;29.50;94.20
38604;DHT22;24924;50.054;8.790;2023-06-19T13:25:17;29.50;94.10
38604;DHT22;24924;50.054;8.790;2023-06-19T13:27:43;29.50;94.20
38604;DHT22;24924;50.054;8.790;2023-06-19T13:30:09;29.60;94.20
38604;DHT22;24924;50.054;8.790;2023-06-19T13:32:35;29.90;94.00
38604;DHT22;24924;50.054;8.790;2023-06-19T13:35:00;30.20;94.00
38604;DHT22;24924;50.054;8.790;2023-06-19T13:37:26;30.40;94.30
38604;DHT22;24924;50.054;8.790;2023-06-19T13:39:52;30.00;93.10
38604;DHT22;24924;50.054;8.790;2023-06-19T13:42:17;29.90;93.50
38604;DHT22;24924;50.054;8.790;2023-06-19T13:44:43;29.60;94.10
38604;DHT22;24924;50.054;8.790;2023-06-19T13:47:08;29.60;93.70
38604;DHT22;24924;50.054;8.790;2023-06-19T13:49:34;29.30;93.70
38604;DHT22;24924;50.054;8.790;2023-06-19T13:52:00;28.80;94.00
38604;DHT22;24924;50.054;8.790;2023-06-19T13:54:26;28.80;94.90
38604;DHT22;24924;50.054;8.790;2023-06-19T13:56:51;28.90;93.90
38604;DHT22;24924;50.054;8.790;2023-06-19T13:59:17;29.10;94.20
38604;DHT22;24924;50.054;8.790;2023-06-19T14:01:43;29.20;93.80
38604;DHT22;24924;50.054;8.790;2023-06-19T14:04:09;29.30;94.00
38604;DHT22;24924;50.054;8.790;2023-06-19T14:06:35;29.30;94.10
38604;DHT22;24924;50.054;8.790;2023-06-19T14:09:03;29.30;93.70
38604;DHT22;24924;50.054;8.790;2023-06-19T14:11:29;29.30;93.20
38604;DHT22;24924;50.054;8.790;2023-06-19T14:13:55;29.00;93.40
38604;DHT22;24924;50.054;8.790;2023-06-19T14:16:21;29.10;93.30
38604;DHT22;24924;50.054;8.790;2023-06-19T14:18:47;29.50;93.00
38604;DHT22;24924;50.054;8.790;2023-06-19T14:21:12;30.00;92.90
38604;DHT22;24924;50.054;8.790;2023-06-19T14:23:38;30.00;92.80
38604;DHT22;24924;50.054;8.790;2023-06-19T14:26:12;30.10;91.50
38604;DHT22;24924;50.054;8.790;2023-06-19T14:28:39;30.10;92.00
38604;DHT22;24924;50.054;8.790;2023-06-19T14:31:05;30.50;92.80
38604;DHT22;24924;50.054;8.790;2023-06-19T14:33:30;30.80;91.60
38604;DHT22;24924;50.054;8.790;2023-06-19T14:36:01;30.80;91.30
38604;DHT22;24924;50.054;8.790;2023-06-19T14:38:29;30.60;91.00
38604;DHT22;24924;50.054;8.790;2023-06-19T14:41:00;31.10;92.20
38604;DHT22;24924;50.054;8.790;2023-06-19T14:43:26;31.20;90.50
38604;DHT22;24924;50.054;8.790;2023-06-19T14:45:52;30.90;90.50
38604;DHT22;24924;50.054;8.790;2023-06-19T14:48:18;31.10;90.50
38604;DHT22;24924;50.054;8.790;2023-06-19T14:50:44;31.30;91.20
38604;DHT22;24924;50.054;8.790;2023-06-19T14:53:10;31.10;90.20
38604;DHT22;24924;50.054;8.790;2023-06-19T14:55:36;31.10;90.90
38604;DHT22;24924;50.054;8.790;2023-06-19T14:58:05;31.20;91.20
38604;DHT22;24924;50.054;8.790;2023-06-19T15:00:31;31.30;90.90
38604;DHT22;24924;50.054;8.790;2023-06-19T15:02:57;31.20;90.30
38604;DHT22;24924;50.054;8.790;2023-06-19T15:05:22;30.90;90.30
38604;DHT22;24924;50.054;8.790;2023-06-19T15:07:48;30.60;90.70
38604;DHT22;24924;50.054;8.790;2023-06-19T15:10:13;30.20;91.00
38604;DHT22;24924;50.054;8.790;2023-06-19T15:12:39;30.40;90.80
38604;DHT22;24924;50.054;8.790;2023-06-19T15:15:05;30.20;90.90
38604;DHT22;24924;50.054;8.790;2023-06-19T15:17:31;30.30;91.20
38604;DHT22;24924;50.054;8.790;2023-06-19T15:19:57;30.40;90.60
38604;DHT22;24924;50.054;8.790;2023-06-19T15:22:23;30.90;90.00
38604;DHT22;24924;50.054;8.790;2023-06-19T15:24:49;31.00;89.60
38604;DHT22;24924;50.054;8.790;2023-06-19T15:27:15;31.40;89.60
38604;DHT22;24924;50.054;8.790;2023-06-19T15:29:40;32.10;89.50
38604;DHT22;24924;50.054;8.790;2023-06-19T15:32:06;32.10;89.40
38604;DHT22;24924;50.054;8.790;2023-06-19T15:34:32;31.50;87.80